sensor_id;sensor_type;location;lat;lon;timestamp;pressure;altitude;pressure_sealevel;temperature;humidity
77299;BME280;66361;52.034;20.656;2023-02-15T00:00:08;101589.72;;;3.12;100.00
77299;BME280;66361;52.034;20.656;2023-02-15T00:04:33;101587.97;;;3.12;100.00
77299;BME280;66361;52.034;20.656;2023-02-15T00:08:51;101595.78;;;3.12;100.00
77299;BME280;66361;52.034;20.656;2023-02-15T00:12:55;101586.22;;;3.11;100.00
77299;BME280;66361;52.034;20.656;2023-02-15T00:16:58;101594.09;;;3.10;100.00
77299;BME280;66361;52.034;20.656;2023-02-15T00:21:04;101581.88;;;3.10;100.00
77299;BME280;66361;52.034;20.656;2023-02-15T00:25:08;101584.50;;;3.10;100.00
77299;BME280;66361;52.034;20.656;2023-02-15T00:29:12;101584.53;;;3.09;100.00
77299;BME280;66361;52.034;20.656;2023-02-15T00:33:16;101581.91;;;3.09;100.00
77299;BME280;66361;52.034;20.656;2023-02-15T00:37:21;101577.56;;;3.08;100.00
77299;BME280;66361;52.034;20.656;2023-02-15T00:41:25;101562.78;;;3.07;100.00
77299;BME280;66361;52.034;20.656;2023-02-15T00:45:30;101561.06;;;3.07;100.00
77299;BME280;66361;52.034;20.656;2023-02-15T00:49:33;101558.44;;;3.07;100.00
77299;BME280;66361;52.034;20.656;2023-02-15T00:53:40;101558.47;;;3.06;100.00
77299;BME280;66361;52.034;20.656;2023-02-15T00:57:46;101563.69;;;3.06;100.00
77299;BME280;66361;52.034;20.656;2023-02-15T01:01:49;101564.56;;;3.06;100.00
77299;BME280;66361;52.034;20.656;2023-02-15T01:05:53;101560.19;;;3.07;100.00
77299;BME280;66361;52.034;20.656;2023-02-15T01:09:58;101560.22;;;3.05;100.00
77299;BME280;66361;52.034;20.656;2023-02-15T01:14:01;101556.75;;;3.03;100.00
77299;BME280;66361;52.034;20.656;2023-02-15T01:18:05;101553.28;;;3.03;100.00
77299;BME280;66361;52.034;20.656;2023-02-15T01:22:08;101544.59;;;3.02;100.00
77299;BME280;66361;52.034;20.656;2023-02-15T01:26:14;101540.25;;;3.01;100.00
77299;BME280;66361;52.034;20.656;2023-02-15T01:30:17;101534.16;;;3.04;100.00
77299;BME280;66361;52.034;20.656;2023-02-15T01:39:45;101538.53;;;3.02;100.00
77299;BME280;66361;52.034;20.656;2023-02-15T01:43:52;101538.53;;;3.02;100.00
77299;BME280;66361;52.034;20.656;2023-02-15T01:47:59;101535.91;;;3.00;100.00
77299;BME280;66361;52.034;20.656;2023-02-15T01:52:05;101529.84;;;3.00;100.00
77299;BME280;66361;52.034;20.656;2023-02-15T01:56:11;101533.31;;;3.00;100.00
77299;BME280;66361;52.034;20.656;2023-02-15T02:00:18;101522.91;;;2.97;100.00
77299;BME280;66361;52.034;20.656;2023-02-15T02:04:27;101524.66;;;2.97;100.00
77299;BME280;66361;52.034;20.656;2023-02-15T02:08:34;101524.66;;;2.97;100.00
77299;BME280;66361;52.034;20.656;2023-02-15T02:12:38;101515.13;;;2.94;100.00
77299;BME280;66361;52.034;20.656;2023-02-15T02:16:50;101513.41;;;2.93;100.00
77299;BME280;66361;52.034;20.656;2023-02-15T02:21:07;101513.41;;;2.91;100.00
77299;BME280;66361;52.034;20.656;2023-02-15T02:34:29;101509.97;;;2.88;100.00
77299;BME280;66361;52.034;20.656;2023-02-15T02:38:42;101510.00;;;2.86;100.00
77299;BME280;66361;52.034;20.656;2023-02-15T02:42:51;101506.50;;;2.84;100.00
77299;BME280;66361;52.034;20.656;2023-02-15T02:46:59;101503.06;;;2.82;100.00
77299;BME280;66361;52.034;20.656;2023-02-15T02:51:05;101498.72;;;2.81;100.00
77299;BME280;66361;52.034;20.656;2023-02-15T02:55:12;101496.13;;;2.81;100.00
77299;BME280;66361;52.034;20.656;2023-02-15T02:59:19;101490.03;;;2.81;100.00
77299;BME280;66361;52.034;20.656;2023-02-15T03:03:27;101484.00;;;2.79;100.00
77299;BME280;66361;52.034;20.656;2023-02-15T03:07:35;101488.38;;;2.75;100.00
77299;BME280;66361;52.034;20.656;2023-02-15T03:11:43;101491.84;;;2.74;100.00
77299;BME280;66361;52.034;20.656;2023-02-15T03:15:46;101488.41;;;2.72;100.00
77299;BME280;66361;52.034;20.656;2023-02-15T03:20:11;101497.97;;;2.69;100.00
77299;BME280;66361;52.034;20.656;2023-02-15T03:24:21;101490.19;;;2.66;100.00
77299;BME280;66361;52.034;20.656;2023-02-15T03:28:30;101496.31;;;2.63;100.00
77299;BME280;66361;52.034;20.656;2023-02-15T03:32:36;101498.06;;;2.60;100.00
77299;BME280;66361;52.034;20.656;2023-02-15T03:36:46;101493.75;;;2.57;100.00
77299;BME280;66361;52.034;20.656;2023-02-15T03:40:53;101487.72;;;2.54;100.00
77299;BME280;66361;52.034;20.656;2023-02-15T03:45:15;101483.38;;;2.51;100.00
77299;BME280;66361;52.034;20.656;2023-02-15T03:49:25;101486.88;;;2.47;100.00
77299;BME280;66361;52.034;20.656;2023-02-15T03:53:31;101497.34;;;2.44;100.00
77299;BME280;66361;52.034;20.656;2023-02-15T03:57:36;101484.34;;;2.39;100.00
77299;BME280;66361;52.034;20.656;2023-02-15T04:02:04;101481.75;;;2.38;100.00
77299;BME280;66361;52.034;20.656;2023-02-15T04:06:12;101486.13;;;2.34;100.00
77299;BME280;66361;52.034;20.656;2023-02-15T04:10:15;101475.72;;;2.31;100.00
77299;BME280;66361;52.034;20.656;2023-02-15T04:14:37;101482.69;;;2.29;100.00
77299;BME280;66361;52.034;20.656;2023-02-15T04:18:57;101482.69;;;2.29;100.00
77299;BME280;66361;52.034;20.656;2023-02-15T04:23:18;101481.81;;;2.29;100.00
77299;BME280;66361;52.034;20.656;2023-02-15T04:27:41;101483.56;;;2.28;100.00
77299;BME280;66361;52.034;20.656;2023-02-15T04:31:45;101474.91;;;2.26;100.00
77299;BME280;66361;52.034;20.656;2023-02-15T04:35:48;101485.31;;;2.25;100.00
77299;BME280;66361;52.034;20.656;2023-02-15T04:39:51;101481.88;;;2.21;100.00
77299;BME280;66361;52.034;20.656;2023-02-15T04:43:54;101476.69;;;2.20;100.00
77299;BME280;66361;52.034;20.656;2023-02-15T04:47:59;101483.66;;;2.18;100.00
77299;BME280;66361;52.034;20.656;2023-02-15T04:52:02;101488.88;;;2.16;100.00
77299;BME280;66361;52.034;20.656;2023-02-15T04:56:05;101489.78;;;2.12;100.00
77299;BME280;66361;52.034;20.656;2023-02-15T05:00:08;101484.53;;;2.15;100.00
77299;BME280;66361;52.034;20.656;2023-02-15T05:04:13;101486.28;;;2.15;100.00
77299;BME280;66361;52.034;20.656;2023-02-15T05:08:16;101481.94;;;2.14;100.00
77299;BME280;66361;52.034;20.656;2023-02-15T05:12:19;101488.91;;;2.12;100.00
77299;BME280;66361;52.034;20.656;2023-02-15T05:16:22;101489.78;;;2.11;100.00
77299;BME280;66361;52.034;20.656;2023-02-15T05:20:27;101495.84;;;2.10;100.00
77299;BME280;66361;52.034;20.656;2023-02-15T05:24:30;101498.50;;;2.07;100.00
77299;BME280;66361;52.034;20.656;2023-02-15T05:28:50;101495.88;;;2.07;100.00
77299;BME280;66361;52.034;20.656;2023-02-15T05:32:53;101495.88;;;2.07;100.00
77299;BME280;66361;52.034;20.656;2023-02-15T05:36:57;101502.81;;;2.08;100.00
77299;BME280;66361;52.034;20.656;2023-02-15T05:41:01;101501.94;;;2.06;100.00
77299;BME280;66361;52.034;20.656;2023-02-15T05:45:05;101493.28;;;2.05;100.00
77299;BME280;66361;52.034;20.656;2023-02-15T05:49:08;101500.25;;;2.05;100.00
77299;BME280;66361;52.034;20.656;2023-02-15T05:53:13;101493.28;;;2.05;100.00
77299;BME280;66361;52.034;20.656;2023-02-15T05:57:16;101495.88;;;2.05;100.00
77299;BME280;66361;52.034;20.656;2023-02-15T06:01:18;101501.09;;;2.07;100.00
77299;BME280;66361;52.034;20.656;2023-02-15T06:05:23;101488.06;;;2.08;100.00
77299;BME280;66361;52.034;20.656;2023-02-15T06:09:27;101492.38;;;2.11;100.00
77299;BME280;66361;52.034;20.656;2023-02-15T06:13:31;101488.91;;;2.12;100.00
77299;BME280;66361;52.034;20.656;2023-02-15T06:17:40;101491.50;;;2.10;100.00
77299;BME280;66361;52.034;20.656;2023-02-15T06:21:44;101494.97;;;2.09;100.00
77299;BME280;66361;52.034;20.656;2023-02-15T06:25:48;101506.28;;;2.10;100.00
77299;BME280;66361;52.034;20.656;2023-02-15T06:29:51;101491.50;;;2.10;100.00
77299;BME280;66361;52.034;20.656;2023-02-15T06:33:54;101499.34;;;2.06;100.00
77299;BME280;66361;52.034;20.656;2023-02-15T06:38:01;101488.13;;;1.99;100.00
77299;BME280;66361;52.034;20.656;2023-02-15T06:42:07;101496.84;;;1.93;100.00
77299;BME280;66361;52.034;20.656;2023-02-15T06:46:10;101504.66;;;1.90;100.00
77299;BME280;66361;52.034;20.656;2023-02-15T06:50:14;101505.53;;;1.92;100.00
77299;BME280;66361;52.034;20.656;2023-02-15T06:54:18;101506.38;;;1.94;100.00
77299;BME280;66361;52.034;20.656;2023-02-15T06:58:22;101508.97;;;1.96;100.00
77299;BME280;66361;52.034;20.656;2023-02-15T07:02:25;101502.88;;;2.00;100.00
77299;BME280;66361;52.034;20.656;2023-02-15T07:06:31;101499.41;;;2.01;100.00
77299;BME280;66361;52.034;20.656;2023-02-15T07:10:35;101502.88;;;1.98;100.00
77299;BME280;66361;52.034;20.656;2023-02-15T07:14:40;101503.75;;;1.99;100.00
77299;BME280;66361;52.034;20.656;2023-02-15T07:18:46;101510.69;;;2.00;100.00
77299;BME280;66361;52.034;20.656;2023-02-15T07:22:51;101495.06;;;2.00;100.00
77299;BME280;66361;52.034;20.656;2023-02-15T07:26:54;101503.75;;;1.97;100.00
77299;BME280;66361;52.034;20.656;2023-02-15T07:31:00;101498.53;;;1.99;100.00
77299;BME280;66361;52.034;20.656;2023-02-15T07:35:04;101501.97;;;2.03;100.00
77299;BME280;66361;52.034;20.656;2023-02-15T07:39:07;101497.59;;;2.09;100.00
77299;BME280;66361;52.034;20.656;2023-02-15T07:43:10;101496.69;;;2.13;100.00
77299;BME280;66361;52.034;20.656;2023-02-15T07:47:15;101503.66;;;2.16;100.00
77299;BME280;66361;52.034;20.656;2023-02-15T07:51:18;101490.56;;;2.23;100.00
77299;BME280;66361;52.034;20.656;2023-02-15T07:55:24;101485.31;;;2.26;100.00
77299;BME280;66361;52.034;20.656;2023-02-15T07:59:29;101475.72;;;2.31;100.00
77299;BME280;66361;52.034;20.656;2023-02-15T08:03:37;101468.75;;;2.38;100.00
77299;BME280;66361;52.034;20.656;2023-02-15T08:07:41;101463.47;;;2.42;100.00
77299;BME280;66361;52.034;20.656;2023-02-15T08:11:44;101458.22;;;2.49;100.00
77299;BME280;66361;52.034;20.656;2023-02-15T08:15:50;101459.06;;;2.52;100.00
77299;BME280;66361;52.034;20.656;2023-02-15T08:19:54;101459.81;;;2.62;100.00
77299;BME280;66361;52.034;20.656;2023-02-15T08:23:57;101454.59;;;2.63;100.00
77299;BME280;66361;52.034;20.656;2023-02-15T08:28:00;101462.41;;;2.62;100.00
77299;BME280;66361;52.034;20.656;2023-02-15T08:32:05;101455.50;;;2.58;100.00
77299;BME280;66361;52.034;20.656;2023-02-15T08:36:12;101454.63;;;2.60;100.00
77299;BME280;66361;52.034;20.656;2023-02-15T08:40:16;101453.66;;;2.69;100.00
77299;BME280;66361;52.034;20.656;2023-02-15T08:44:20;101448.41;;;2.75;100.00
77299;BME280;66361;52.034;20.656;2023-02-15T08:48:24;101444.91;;;2.77;100.00
77299;BME280;66361;52.034;20.656;2023-02-15T08:52:28;101441.41;;;2.80;100.00
77299;BME280;66361;52.034;20.656;2023-02-15T08:56:34;101437.00;;;2.85;100.00
77299;BME280;66361;52.034;20.656;2023-02-15T09:00:38;101428.25;;;2.89;100.00
77299;BME280;66361;52.034;20.656;2023-02-15T09:04:41;101427.31;;;2.96;100.00
77299;BME280;66361;52.034;20.656;2023-02-15T09:08:45;101423.03;;;2.89;100.00
77299;BME280;66361;52.034;20.656;2023-02-15T09:12:48;101430.81;;;2.93;100.00
77299;BME280;66361;52.034;20.656;2023-02-15T09:16:52;101420.34;;;2.98;100.00
77299;BME280;66361;52.034;20.656;2023-02-15T09:21:04;101423.75;;;3.05;100.00
77299;BME280;66361;52.034;20.656;2023-02-15T09:25:12;101409.72;;;3.13;100.00
77299;BME280;66361;52.034;20.656;2023-02-15T09:29:16;101407.09;;;3.16;100.00
77299;BME280;66361;52.034;20.656;2023-02-15T09:33:19;101401.78;;;3.22;100.00
77299;BME280;66361;52.034;20.656;2023-02-15T09:37:23;101412.19;;;3.24;100.00
77299;BME280;66361;52.034;20.656;2023-02-15T09:41:47;101402.72;;;3.17;100.00
77299;BME280;66361;52.034;20.656;2023-02-15T09:46:10;101406.94;;;3.27;98.99
77299;BME280;66361;52.034;20.656;2023-02-15T09:50:23;101401.59;;;3.36;98.99
77299;BME280;66361;52.034;20.656;2023-02-15T15:44:53;101127.31;;;2.47;100.00
77299;BME280;66361;52.034;20.656;2023-02-15T15:49:07;101128.19;;;2.47;100.00
77299;BME280;66361;52.034;20.656;2023-02-15T15:53:19;101128.19;;;2.49;100.00
77299;BME280;66361;52.034;20.656;2023-02-15T15:57:26;101125.56;;;2.49;100.00
77299;BME280;66361;52.034;20.656;2023-02-15T16:01:38;101128.25;;;2.46;100.00
77299;BME280;66361;52.034;20.656;2023-02-15T16:05:43;101124.78;;;2.44;100.00
77299;BME280;66361;52.034;20.656;2023-02-15T16:09:53;101121.31;;;2.43;100.00
77299;BME280;66361;52.034;20.656;2023-02-15T16:13:59;101122.16;;;2.45;100.00
77299;BME280;66361;52.034;20.656;2023-02-15T16:18:04;101130.09;;;2.38;100.00
77299;BME280;66361;52.034;20.656;2023-02-15T16:22:11;101119.63;;;2.41;100.00
77299;BME280;66361;52.034;20.656;2023-02-15T16:26:25;101111.00;;;2.36;100.00
77299;BME280;66361;52.034;20.656;2023-02-15T16:30:36;101116.25;;;2.31;100.00
77299;BME280;66361;52.034;20.656;2023-02-15T16:34:52;101106.75;;;2.30;100.00
77299;BME280;66361;52.034;20.656;2023-02-15T16:39:07;101104.09;;;2.33;100.00
77299;BME280;66361;52.034;20.656;2023-02-15T16:43:16;101102.34;;;2.32;100.00
77299;BME280;66361;52.034;20.656;2023-02-15T16:47:22;101101.53;;;2.30;100.00
77299;BME280;66361;52.034;20.656;2023-02-15T16:51:30;101091.88;;;2.35;100.00
77299;BME280;66361;52.034;20.656;2023-02-15T16:55:37;101086.78;;;2.31;100.00
77299;BME280;66361;52.034;20.656;2023-02-15T16:59:45;101087.66;;;2.30;100.00
77299;BME280;66361;52.034;20.656;2023-02-15T17:03:51;101089.38;;;2.31;100.00
77299;BME280;66361;52.034;20.656;2023-02-15T17:08:14;101082.41;;;2.31;100.00
77299;BME280;66361;52.034;20.656;2023-02-15T17:12:44;101085.03;;;2.30;100.00
77299;BME280;66361;52.034;20.656;2023-02-15T17:16:53;101087.59;;;2.31;100.00
77299;BME280;66361;52.034;20.656;2023-02-15T17:21:00;101082.41;;;2.31;100.00
77299;BME280;66361;52.034;20.656;2023-02-15T17:25:06;101078.03;;;2.35;100.00
77299;BME280;66361;52.034;20.656;2023-02-15T17:29:25;101070.28;;;2.30;100.00
77299;BME280;66361;52.034;20.656;2023-02-15T17:33:37;101067.69;;;2.30;100.00
77299;BME280;66361;52.034;20.656;2023-02-15T17:37:44;101065.94;;;2.31;100.00
77299;BME280;66361;52.034;20.656;2023-02-15T17:41:49;101062.47;;;2.29;100.00
77299;BME280;66361;52.034;20.656;2023-02-15T17:45:54;101055.50;;;2.31;100.00
77299;BME280;66361;52.034;20.656;2023-02-15T17:50:01;101044.19;;;2.33;100.00
77299;BME280;66361;52.034;20.656;2023-02-15T17:54:07;101048.41;;;2.39;100.00
77299;BME280;66361;52.034;20.656;2023-02-15T17:58:29;101044.16;;;2.35;100.00
77299;BME280;66361;52.034;20.656;2023-02-15T18:02:37;101033.75;;;2.35;100.00
77299;BME280;66361;52.034;20.656;2023-02-15T18:06:58;101034.69;;;2.31;100.00
77299;BME280;66361;52.034;20.656;2023-02-15T18:11:18;101028.56;;;2.32;100.00
77299;BME280;66361;52.034;20.656;2023-02-15T18:15:42;101026.81;;;2.32;100.00
77299;BME280;66361;52.034;20.656;2023-02-15T18:19:47;101022.53;;;2.30;100.00
77299;BME280;66361;52.034;20.656;2023-02-15T18:23:50;101013.88;;;2.28;100.00
77299;BME280;66361;52.034;20.656;2023-02-15T18:27:54;101014.78;;;2.25;100.00
77299;BME280;66361;52.034;20.656;2023-02-15T18:31:59;101008.75;;;2.23;100.00
77299;BME280;66361;52.034;20.656;2023-02-15T18:36:04;101011.38;;;2.20;100.00
77299;BME280;66361;52.034;20.656;2023-02-15T18:40:14;101008.88;;;2.16;100.00
77299;BME280;66361;52.034;20.656;2023-02-15T18:44:20;101011.53;;;2.10;100.00
77299;BME280;66361;52.034;20.656;2023-02-15T18:48:24;101005.56;;;2.05;100.00
77299;BME280;66361;52.034;20.656;2023-02-15T18:52:32;101008.13;;;2.06;100.00
77299;BME280;66361;52.034;20.656;2023-02-15T18:56:37;101001.19;;;2.05;100.00
77299;BME280;66361;52.034;20.656;2023-02-15T19:00:41;101004.66;;;2.06;100.00
77299;BME280;66361;52.034;20.656;2023-02-15T19:04:47;100989.91;;;2.06;100.00
77299;BME280;66361;52.034;20.656;2023-02-15T19:08:52;100997.69;;;2.08;100.00
77299;BME280;66361;52.034;20.656;2023-02-15T19:12:58;100995.97;;;2.05;100.00
77299;BME280;66361;52.034;20.656;2023-02-15T19:17:01;100992.59;;;2.00;100.00
77299;BME280;66361;52.034;20.656;2023-02-15T19:21:12;100980.56;;;1.93;100.00
77299;BME280;66361;52.034;20.656;2023-02-15T19:25:24;100981.75;;;1.71;100.00
77299;BME280;66361;52.034;20.656;2023-02-15T19:29:29;100978.59;;;1.46;100.00
77299;BME280;66361;52.034;20.656;2023-02-15T19:33:32;100969.38;;;1.21;100.00
77299;BME280;66361;52.034;20.656;2023-02-15T19:37:38;100968.81;;;0.94;100.00
77299;BME280;66361;52.034;20.656;2023-02-15T19:41:43;100969.03;;;0.72;100.00
77299;BME280;66361;52.034;20.656;2023-02-15T19:45:46;100970.94;;;0.51;100.00
77299;BME280;66361;52.034;20.656;2023-02-15T19:49:59;100958.13;;;0.33;100.00
77299;BME280;66361;52.034;20.656;2023-02-15T19:54:17;100952.16;;;0.22;100.00
77299;BME280;66361;52.034;20.656;2023-02-15T19:58:38;100944.47;;;0.13;100.00
77299;BME280;66361;52.034;20.656;2023-02-15T20:02:44;100929.81;;;0.06;100.00
77299;BME280;66361;52.034;20.656;2023-02-15T20:06:48;100935.97;;;-0.07;100.00
77299;BME280;66361;52.034;20.656;2023-02-15T20:10:53;100931.72;;;-0.19;100.00
77299;BME280;66361;52.034;20.656;2023-02-15T20:14:57;100927.44;;;-0.27;100.00
77299;BME280;66361;52.034;20.656;2023-02-15T20:19:01;100925.78;;;-0.36;100.00
77299;BME280;66361;52.034;20.656;2023-02-15T20:23:04;100921.50;;;-0.46;100.00
77299;BME280;66361;52.034;20.656;2023-02-15T20:27:14;100912.06;;;-0.56;100.00
77299;BME280;66361;52.034;20.656;2023-02-15T20:31:18;100914.72;;;-0.65;100.00
77299;BME280;66361;52.034;20.656;2023-02-15T20:35:25;100910.44;;;-0.71;100.00
77299;BME280;66361;52.034;20.656;2023-02-15T20:39:32;100901.84;;;-0.80;100.00
77299;BME280;66361;52.034;20.656;2023-02-15T20:43:39;100892.34;;;-0.87;100.00
77299;BME280;66361;52.034;20.656;2023-02-15T20:47:45;100900.16;;;-0.93;100.00
77299;BME280;66361;52.034;20.656;2023-02-15T20:51:50;100896.75;;;-0.96;100.00
77299;BME280;66361;52.034;20.656;2023-02-15T20:55:53;100895.00;;;-0.92;100.00
77299;BME280;66361;52.034;20.656;2023-02-15T20:59:58;100893.25;;;-0.93;100.00
77299;BME280;66361;52.034;20.656;2023-02-15T21:04:01;100897.59;;;-1.01;100.00
77299;BME280;66361;52.034;20.656;2023-02-15T21:08:11;100890.75;;;-1.11;100.00
77299;BME280;66361;52.034;20.656;2023-02-15T21:12:16;100890.78;;;-1.19;100.00
77299;BME280;66361;52.034;20.656;2023-02-15T21:16:20;100885.63;;;-1.26;100.00
77299;BME280;66361;52.034;20.656;2023-02-15T21:20:23;100887.38;;;-1.37;100.00
77299;BME280;66361;52.034;20.656;2023-02-15T21:24:28;100882.19;;;-1.44;100.00
77299;BME280;66361;52.034;20.656;2023-02-15T21:28:32;100887.41;;;-1.47;100.00
77299;BME280;66361;52.034;20.656;2023-02-15T21:32:40;100883.09;;;-1.49;100.00
77299;BME280;66361;52.034;20.656;2023-02-15T21:36:49;100880.50;;;-1.51;100.00
77299;BME280;66361;52.034;20.656;2023-02-15T21:40:52;100873.63;;;-1.56;100.00
77299;BME280;66361;52.034;20.656;2023-02-15T21:44:55;100859.81;;;-1.66;100.00
77299;BME280;66361;52.034;20.656;2023-02-15T21:49:19;100852.97;;;-1.74;100.00
77299;BME280;66361;52.034;20.656;2023-02-15T21:53:24;100846.09;;;-1.81;100.00
77299;BME280;66361;52.034;20.656;2023-02-15T21:57:28;100852.09;;;-1.81;100.00
77299;BME280;66361;52.034;20.656;2023-02-15T22:01:32;100841.75;;;-1.84;100.00
77299;BME280;66361;52.034;20.656;2023-02-15T22:05:36;100835.72;;;-1.87;100.00
77299;BME280;66361;52.034;20.656;2023-02-15T22:09:39;100828.84;;;-1.90;100.00
77299;BME280;66361;52.034;20.656;2023-02-15T22:13:44;100817.63;;;-1.92;100.00
77299;BME280;66361;52.034;20.656;2023-02-15T22:17:47;100822.78;;;-1.92;100.00
77299;BME280;66361;52.034;20.656;2023-02-15T22:21:53;100814.22;;;-1.92;100.00
77299;BME280;66361;52.034;20.656;2023-02-15T22:25:58;100802.09;;;-1.92;100.00
77299;BME280;66361;52.034;20.656;2023-02-15T22:30:19;100799.53;;;-1.86;100.00
77299;BME280;66361;52.034;20.656;2023-02-15T22:34:28;100806.38;;;-1.77;100.00
77299;BME280;66361;52.034;20.656;2023-02-15T22:38:33;100804.66;;;-1.75;100.00
77299;BME280;66361;52.034;20.656;2023-02-15T22:42:37;100791.75;;;-1.78;100.00
77299;BME280;66361;52.034;20.656;2023-02-15T22:46:40;100782.25;;;-1.79;100.00
77299;BME280;66361;52.034;20.656;2023-02-15T22:50:43;100778.78;;;-1.77;100.00
77299;BME280;66361;52.034;20.656;2023-02-15T22:54:48;100782.25;;;-1.79;100.00
77299;BME280;66361;52.034;20.656;2023-02-15T22:59:00;100773.66;;;-1.87;100.00
77299;BME280;66361;52.034;20.656;2023-02-15T23:03:14;100769.34;;;-1.85;100.00
77299;BME280;66361;52.034;20.656;2023-02-15T23:07:18;100762.41;;;-1.74;100.00
77299;BME280;66361;52.034;20.656;2023-02-15T23:11:23;100755.50;;;-1.71;100.00
77299;BME280;66361;52.034;20.656;2023-02-15T23:15:28;100766.69;;;-1.64;100.00
77299;BME280;66361;52.034;20.656;2023-02-15T23:19:31;100758.91;;;-1.55;100.00
77299;BME280;66361;52.034;20.656;2023-02-15T23:23:36;100760.56;;;-1.47;100.00
77299;BME280;66361;52.034;20.656;2023-02-15T23:27:41;100765.72;;;-1.40;100.00
77299;BME280;66361;52.034;20.656;2023-02-15T23:31:59;100764.88;;;-1.46;100.00
77299;BME280;66361;52.034;20.656;2023-02-15T23:36:05;100759.72;;;-1.53;100.00
77299;BME280;66361;52.034;20.656;2023-02-15T23:40:13;100752.88;;;-1.59;100.00
77299;BME280;66361;52.034;20.656;2023-02-15T23:44:35;100748.53;;;-1.57;100.00
77299;BME280;66361;52.034;20.656;2023-02-15T23:48:39;100745.09;;;-1.59;100.00
77299;BME280;66361;52.034;20.656;2023-02-15T23:52:44;100736.47;;;-1.65;100.00
77299;BME280;66361;52.034;20.656;2023-02-15T23:56:49;100734.81;;;-1.74;100.00
